createdAt,value
2018-07-12T00:01:03.049Z,25.69
2018-07-12T00:03:31.297Z,25.65
2018-07-12T00:05:59.641Z,25.70
2018-07-12T00:08:28.487Z,25.68
2018-07-12T00:10:56.701Z,25.73
2018-07-12T00:13:24.965Z,25.66
2018-07-12T00:15:53.346Z,25.72
2018-07-12T00:18:21.692Z,25.80
2018-07-12T00:20:49.873Z,25.76
2018-07-12T00:23:18.061Z,25.71
2018-07-12T00:25:46.301Z,25.72
2018-07-12T00:28:14.650Z,25.78
2018-07-12T00:30:42.873Z,25.92
2018-07-12T00:33:11.285Z,25.80
2018-07-12T00:35:39.769Z,25.75
2018-07-12T00:38:08.104Z,25.72
2018-07-12T00:40:37.046Z,25.78
2018-07-12T00:43:05.590Z,25.77
2018-07-12T00:45:33.963Z,25.83
2018-07-12T00:48:02.368Z,25.77
2018-07-12T00:50:30.542Z,25.83
2018-07-12T00:52:58.821Z,25.78
2018-07-12T00:55:27.321Z,25.92
2018-07-12T00:57:55.954Z,25.90
2018-07-12T01:00:24.430Z,25.84
2018-07-12T01:02:53.059Z,25.74
2018-07-12T01:05:21.537Z,25.68
2018-07-12T01:07:49.803Z,25.56
2018-07-12T01:10:18.194Z,25.64
2018-07-12T01:12:46.669Z,25.65
2018-07-12T01:15:14.838Z,25.55
2018-07-12T01:17:43.288Z,25.53
2018-07-12T01:20:11.485Z,25.52
2018-07-12T01:22:39.735Z,25.44
2018-07-12T01:25:07.966Z,25.47
2018-07-12T01:27:36.394Z,25.46
2018-07-12T01:30:04.710Z,25.46
2018-07-12T01:32:33.178Z,25.48
2018-07-12T01:35:01.448Z,25.48
2018-07-12T01:37:29.621Z,25.56
2018-07-12T01:39:57.821Z,25.53
2018-07-12T01:42:26.292Z,25.55
2018-07-12T01:44:54.597Z,25.62
2018-07-12T01:47:23.041Z,25.65
2018-07-12T01:49:51.383Z,25.73
2018-07-12T01:52:19.593Z,25.78
2018-07-12T01:54:47.995Z,25.85
2018-07-12T01:57:16.465Z,25.83
2018-07-12T01:59:44.718Z,25.80
2018-07-12T02:02:13.210Z,25.81
2018-07-12T02:04:41.477Z,25.79
2018-07-12T02:07:09.644Z,25.69
2018-07-12T02:09:38.100Z,25.67
2018-07-12T02:12:06.302Z,25.51
2018-07-12T02:14:34.548Z,25.43
2018-07-12T02:17:03.022Z,25.22
2018-07-12T02:19:31.225Z,24.59
2018-07-12T02:21:59.375Z,24.70
2018-07-12T02:24:27.630Z,24.89
2018-07-12T02:26:55.853Z,24.89
2018-07-12T02:29:24.335Z,24.62
2018-07-12T02:31:52.721Z,24.13
2018-07-12T02:34:20.959Z,24.58
2018-07-12T02:36:49.428Z,24.62
2018-07-12T02:39:17.720Z,24.68
2018-07-12T02:41:45.918Z,24.56
2018-07-12T02:44:14.276Z,24.79
2018-07-12T02:46:42.544Z,24.69
2018-07-12T02:49:10.751Z,24.62
2018-07-12T02:51:38.902Z,24.83
2018-07-12T02:54:07.535Z,24.90
2018-07-12T02:56:35.960Z,24.74
2018-07-12T02:59:04.130Z,24.85
2018-07-12T03:01:32.374Z,25.01
2018-07-12T03:04:00.609Z,25.02
2018-07-12T03:06:28.754Z,24.99
2018-07-12T03:08:57.126Z,25.17
2018-07-12T03:11:25.330Z,25.20
2018-07-12T03:13:53.505Z,25.28
2018-07-12T03:16:21.998Z,25.26
2018-07-12T03:18:50.481Z,25.23
2018-07-12T03:21:19.129Z,25.18
2018-07-12T03:23:47.553Z,25.27
2018-07-12T03:26:15.947Z,25.36
2018-07-12T03:28:44.262Z,25.52
2018-07-12T03:31:12.793Z,25.38
2018-07-12T03:33:41.260Z,25.49
2018-07-12T03:36:09.745Z,25.56
2018-07-12T03:38:38.281Z,25.66
2018-07-12T03:41:06.481Z,25.67
2018-07-12T03:43:34.938Z,25.68
2018-07-12T03:46:04.809Z,25.77
2018-07-12T03:48:33.187Z,25.83
2018-07-12T03:51:01.610Z,25.88
2018-07-12T03:53:29.929Z,25.88
2018-07-12T03:55:58.457Z,25.71
2018-07-12T03:58:26.854Z,25.81
2018-07-12T04:00:55.261Z,25.67
2018-07-12T04:03:23.447Z,25.57
2018-07-12T04:05:51.953Z,25.68
2018-07-12T04:08:20.181Z,25.96
2018-07-12T04:10:48.349Z,26.11
2018-07-12T04:13:16.737Z,26.27
2018-07-12T04:15:45.391Z,26.42
2018-07-12T04:18:13.593Z,26.55
2018-07-12T04:20:41.765Z,26.63
2018-07-12T04:23:10.167Z,26.86
2018-07-12T04:25:38.659Z,26.75
2018-07-12T04:28:06.897Z,26.86
2018-07-12T04:30:35.322Z,26.71
2018-07-12T04:33:03.562Z,26.88
2018-07-12T04:35:31.913Z,26.75
2018-07-12T04:38:00.142Z,27.00
2018-07-12T04:40:28.561Z,26.80
2018-07-12T04:42:56.773Z,26.91
2018-07-12T04:45:25.257Z,27.05
2018-07-12T04:47:53.796Z,27.25
2018-07-12T04:50:21.977Z,27.06
2018-07-12T04:52:50.911Z,27.52
2018-07-12T04:55:19.168Z,28.13
2018-07-12T04:57:47.356Z,28.39
2018-07-12T05:00:16.033Z,28.37
2018-07-12T05:02:44.301Z,28.88
2018-07-12T05:05:12.453Z,29.45
2018-07-12T05:07:40.861Z,29.48
2018-07-12T05:10:09.309Z,29.70
2018-07-12T05:12:37.607Z,30.16
2018-07-12T05:15:05.824Z,30.01
2018-07-12T05:17:34.195Z,30.16
2018-07-12T05:20:02.461Z,30.30
2018-07-12T05:22:30.739Z,30.15
2018-07-12T05:24:58.864Z,29.70
2018-07-12T05:27:27.225Z,30.56
2018-07-12T05:29:55.446Z,31.03
2018-07-12T05:32:23.625Z,31.37
2018-07-12T05:34:51.962Z,31.78
2018-07-12T05:37:22.519Z,32.18
2018-07-12T05:39:53.287Z,31.90
2018-07-12T05:42:24.319Z,32.11
2018-07-12T05:44:54.611Z,32.27
2018-07-12T05:47:25.409Z,31.96
2018-07-12T05:49:56.165Z,31.80
2018-07-12T05:52:26.765Z,31.61
2018-07-12T05:54:57.403Z,31.65
2018-07-12T05:57:28.200Z,32.21
2018-07-12T05:59:58.885Z,32.00
2018-07-12T06:02:29.462Z,32.37
2018-07-12T06:04:59.612Z,32.42
2018-07-12T06:07:30.550Z,32.10
2018-07-12T06:10:01.213Z,32.73
2018-07-12T06:12:31.805Z,33.49
2018-07-12T06:15:02.462Z,33.62
2018-07-12T06:17:32.958Z,33.26
2018-07-12T06:20:03.683Z,32.94
2018-07-12T06:22:34.566Z,33.46
2018-07-12T06:25:05.299Z,33.80
2018-07-12T06:27:36.362Z,33.56
2018-07-12T06:30:07.831Z,32.62
2018-07-12T06:32:38.669Z,32.07
2018-07-12T06:35:08.764Z,32.40
2018-07-12T06:37:39.230Z,32.44
2018-07-12T06:40:09.897Z,32.76
2018-07-12T06:42:40.615Z,33.56
2018-07-12T06:45:11.210Z,34.01
2018-07-12T06:47:41.309Z,33.09
2018-07-12T06:50:12.130Z,33.07
2018-07-12T06:52:42.895Z,32.91
2018-07-12T06:55:13.957Z,32.96
2018-07-12T06:57:44.661Z,33.92
2018-07-12T07:00:15.733Z,33.89
2018-07-12T07:02:46.401Z,34.67
2018-07-12T07:05:17.287Z,34.99
2018-07-12T07:07:47.333Z,35.50
2018-07-12T07:10:18.095Z,34.99
2018-07-12T07:12:48.343Z,34.84
2018-07-12T07:15:19.313Z,35.27
2018-07-12T07:17:50.089Z,35.36
2018-07-12T07:20:21.190Z,35.50
2018-07-12T07:22:51.873Z,34.68
2018-07-12T07:25:22.661Z,34.68
2018-07-12T07:27:53.166Z,34.82
2018-07-12T07:30:23.919Z,35.40
2018-07-12T07:32:54.144Z,35.40
2018-07-12T07:35:25.020Z,35.70
2018-07-12T07:37:55.757Z,36.24
2018-07-12T07:40:26.726Z,36.29
2018-07-12T07:42:57.282Z,36.18
2018-07-12T07:45:28.370Z,36.00
2018-07-12T07:47:59.113Z,36.17
2018-07-12T07:50:29.535Z,34.89
2018-07-12T07:53:01.235Z,36.19
2018-07-12T07:55:31.950Z,36.33
2018-07-12T07:58:02.448Z,37.26
2018-07-12T08:00:33.310Z,36.46
2018-07-12T08:03:04.020Z,37.22
2018-07-12T08:05:35.119Z,37.58
2018-07-12T08:08:05.842Z,37.99
2018-07-12T08:10:36.681Z,38.14
2018-07-12T08:13:07.365Z,38.17
2018-07-12T08:15:38.137Z,38.19
2018-07-12T08:18:08.874Z,37.37
2018-07-12T08:20:39.662Z,36.97
2018-07-12T08:23:10.597Z,35.81
2018-07-12T08:25:42.205Z,35.75
2018-07-12T08:28:25.674Z,36.29
2018-07-12T08:30:57.004Z,37.10
2018-07-12T08:33:27.852Z,36.94
2018-07-12T08:35:58.868Z,36.31
2018-07-12T08:38:30.241Z,36.14
2018-07-12T08:41:00.807Z,37.18
2018-07-12T08:43:31.488Z,37.23
2018-07-12T08:46:02.177Z,37.32
2018-07-12T08:48:32.544Z,37.23
2018-07-12T08:51:03.313Z,37.61
2018-07-12T08:53:34.122Z,38.16
2018-07-12T08:56:04.810Z,38.23
2018-07-12T08:58:35.509Z,37.87
2018-07-12T09:01:06.638Z,37.69
2018-07-12T09:03:37.290Z,36.60
2018-07-12T09:06:08.056Z,37.42
2018-07-12T09:08:38.722Z,38.44
2018-07-12T09:11:09.811Z,38.81
2018-07-12T09:13:40.478Z,38.88
2018-07-12T09:16:11.673Z,38.33
2018-07-12T09:18:42.203Z,37.40
2018-07-12T09:21:13.189Z,37.09
2018-07-12T09:23:43.749Z,37.97
2018-07-12T09:26:14.213Z,38.11
2018-07-12T09:28:44.990Z,38.98
2018-07-12T09:31:15.973Z,38.15
2018-07-12T09:33:46.635Z,38.38
2018-07-12T09:36:17.502Z,38.99
2018-07-12T09:38:50.150Z,38.51
2018-07-12T09:41:21.470Z,38.13
2018-07-12T09:43:52.609Z,38.57
2018-07-12T09:46:23.849Z,38.51
2018-07-12T09:48:54.575Z,37.77
2018-07-12T09:51:25.269Z,38.71
2018-07-12T09:53:55.934Z,39.12
2018-07-12T09:56:42.254Z,39.42
2018-07-12T09:59:12.925Z,40.25
2018-07-12T10:01:48.857Z,38.98
2018-07-12T10:04:19.517Z,39.27
2018-07-12T10:06:52.359Z,39.55
2018-07-12T10:09:27.874Z,39.94
2018-07-12T10:12:03.914Z,39.88
2018-07-12T10:14:39.041Z,39.61
2018-07-12T10:17:12.493Z,39.64
2018-07-12T10:19:43.442Z,39.93
2018-07-12T10:22:14.233Z,39.93
2018-07-12T10:24:47.746Z,40.24
2018-07-12T10:27:18.742Z,40.67
2018-07-12T10:29:49.509Z,39.86
2018-07-12T10:32:20.317Z,39.98
2018-07-12T10:34:50.444Z,40.96
2018-07-12T10:37:21.329Z,41.17
2018-07-12T10:39:52.097Z,40.96
2018-07-12T10:42:22.821Z,40.18
2018-07-12T10:44:53.718Z,40.33
2018-07-12T10:47:24.697Z,39.76
2018-07-12T10:49:55.387Z,40.18
2018-07-12T10:52:26.226Z,40.76
2018-07-12T10:54:56.915Z,40.93
2018-07-12T10:57:27.790Z,39.77
2018-07-12T10:59:58.476Z,40.56
2018-07-12T11:02:29.196Z,40.60
2018-07-12T11:04:59.942Z,39.50
2018-07-12T11:07:30.741Z,39.09
2018-07-12T11:10:01.498Z,39.44
2018-07-12T11:12:32.281Z,39.00
2018-07-12T11:15:02.967Z,39.79
2018-07-12T11:17:33.773Z,40.52
2018-07-12T11:20:04.659Z,40.34
2018-07-12T11:22:35.202Z,40.73
2018-07-12T11:25:05.425Z,39.62
2018-07-12T11:27:35.352Z,39.01
2018-07-12T11:30:05.941Z,39.76
2018-07-12T11:32:36.646Z,40.49
2018-07-12T11:35:07.409Z,40.31
2018-07-12T11:37:38.213Z,40.26
2018-07-12T11:40:08.572Z,40.66
2018-07-12T11:42:39.479Z,40.03
2018-07-12T11:45:09.883Z,38.95
2018-07-12T11:47:40.330Z,39.02
2018-07-12T11:50:11.200Z,39.70
2018-07-12T11:52:42.162Z,40.71
2018-07-12T11:55:12.030Z,40.77
2018-07-12T11:57:42.375Z,39.97
2018-07-12T12:00:13.126Z,40.06
2018-07-12T12:02:43.542Z,39.19
2018-07-12T12:05:13.901Z,39.88
2018-07-12T12:07:44.238Z,39.69
2018-07-12T12:10:14.935Z,39.97
2018-07-12T12:12:46.189Z,40.45
2018-07-12T12:15:16.986Z,40.55
2018-07-12T12:17:47.757Z,40.55
2018-07-12T12:20:18.368Z,39.77
2018-07-12T12:22:49.159Z,40.52
2018-07-12T12:25:20.081Z,39.67
2018-07-12T12:27:50.415Z,41.19
2018-07-12T12:30:20.866Z,40.67
2018-07-12T12:32:51.221Z,40.62
2018-07-12T12:35:21.886Z,39.65
2018-07-12T12:37:52.290Z,40.24
2018-07-12T12:40:23.106Z,40.01
2018-07-12T12:42:53.427Z,40.27
2018-07-12T12:45:23.965Z,40.11
2018-07-12T12:47:54.304Z,40.67
2018-07-12T12:50:24.674Z,39.53
2018-07-12T12:52:55.078Z,39.36
2018-07-12T12:55:25.522Z,40.61
2018-07-12T12:57:55.898Z,39.99
2018-07-12T13:00:25.984Z,39.99
2018-07-12T13:02:56.280Z,40.05
2018-07-12T13:05:26.653Z,39.96
2018-07-12T13:07:57.145Z,39.86
2018-07-12T13:10:27.522Z,39.63
2018-07-12T13:12:58.337Z,40.01
2018-07-12T13:15:28.846Z,39.46
2018-07-12T13:17:59.738Z,38.59
2018-07-12T13:20:30.173Z,39.14
2018-07-12T13:23:01.074Z,38.73
2018-07-12T13:25:31.817Z,39.62
2018-07-12T13:28:02.714Z,40.00
2018-07-12T13:30:33.460Z,40.03
2018-07-12T13:33:04.546Z,40.61
2018-07-12T13:35:35.170Z,41.22
2018-07-12T13:38:06.042Z,40.21
2018-07-12T13:40:36.720Z,40.40
2018-07-12T13:43:07.585Z,40.89
2018-07-12T13:45:38.289Z,40.58
2018-07-12T13:48:09.097Z,40.45
2018-07-12T13:50:39.758Z,39.62
2018-07-12T13:53:10.526Z,39.87
2018-07-12T13:55:40.968Z,39.57
2018-07-12T13:58:11.795Z,40.23
2018-07-12T14:00:42.646Z,39.86
2018-07-12T14:03:13.661Z,40.36
2018-07-12T14:05:44.418Z,40.30
2018-07-12T14:08:15.427Z,39.16
2018-07-12T14:10:45.945Z,38.97
2018-07-12T14:13:16.117Z,39.72
2018-07-12T14:15:46.697Z,39.09
2018-07-12T14:18:17.401Z,38.69
2018-07-12T14:20:47.961Z,38.41
2018-07-12T14:23:18.966Z,38.55
2018-07-12T14:25:49.433Z,38.81
2018-07-12T14:28:20.075Z,39.20
2018-07-12T14:30:50.937Z,38.81
2018-07-12T14:33:21.650Z,38.71
2018-07-12T14:35:52.290Z,39.44
2018-07-12T14:38:22.982Z,39.38
2018-07-12T14:40:52.921Z,39.83
2018-07-12T14:43:23.681Z,40.03
2018-07-12T14:45:54.326Z,40.69
2018-07-12T14:48:25.184Z,39.74
2018-07-12T14:50:55.741Z,38.34
2018-07-12T14:53:26.885Z,38.82
2018-07-12T14:55:57.125Z,38.85
2018-07-12T14:58:27.949Z,38.22
2018-07-12T15:00:58.648Z,37.95
2018-07-12T15:03:29.426Z,38.17
2018-07-12T15:06:00.162Z,37.90
2018-07-12T15:08:31.010Z,38.49
2018-07-12T15:11:01.689Z,38.14
2018-07-12T15:13:32.522Z,37.84
2018-07-12T15:16:03.514Z,38.16
2018-07-12T15:18:34.234Z,37.39
2018-07-12T15:21:04.974Z,38.06
2018-07-12T15:23:36.568Z,37.86
2018-07-12T15:26:07.420Z,37.95
2018-07-12T15:28:39.109Z,37.76
2018-07-12T15:31:09.836Z,38.21
2018-07-12T15:33:40.711Z,38.04
2018-07-12T15:36:11.275Z,37.84
2018-07-12T15:38:42.150Z,37.79
2018-07-12T15:41:12.897Z,38.27
2018-07-12T15:43:43.593Z,38.46
2018-07-12T15:46:14.279Z,37.88
2018-07-12T15:48:45.548Z,37.45
2018-07-12T15:51:16.345Z,37.37
2018-07-12T15:53:47.269Z,37.23
2018-07-12T15:56:18.023Z,37.05
2018-07-12T15:58:48.944Z,37.09
2018-07-12T16:01:19.614Z,37.32
2018-07-12T16:03:50.057Z,37.15
2018-07-12T16:06:20.673Z,36.91
2018-07-12T16:08:51.526Z,37.17
2018-07-12T16:11:22.129Z,36.80
2018-07-12T16:13:52.917Z,36.97
2018-07-12T16:16:23.634Z,36.45
2018-07-12T16:18:54.293Z,36.74
2018-07-12T16:21:24.869Z,36.78
2018-07-12T16:23:55.674Z,36.55
2018-07-12T16:26:25.921Z,36.28
2018-07-12T16:28:56.620Z,36.48
2018-07-12T16:31:27.158Z,36.17
2018-07-12T16:33:57.988Z,36.24
2018-07-12T16:36:28.615Z,35.83
2018-07-12T16:38:59.610Z,35.86
2018-07-12T16:41:30.402Z,35.72
2018-07-12T16:44:01.388Z,35.97
2018-07-12T16:46:32.109Z,36.12
2018-07-12T16:49:02.994Z,36.12
2018-07-12T16:51:33.625Z,35.93
2018-07-12T16:54:04.314Z,36.03
2018-07-12T16:56:37.393Z,36.04
2018-07-12T16:59:08.336Z,36.14
2018-07-12T17:01:39.049Z,36.01
2018-07-12T17:04:09.975Z,35.83
2018-07-12T17:06:40.710Z,35.81
2018-07-12T17:09:11.641Z,35.70
2018-07-12T17:11:42.269Z,35.53
2018-07-12T17:14:13.105Z,35.52
2018-07-12T17:16:43.700Z,35.42
2018-07-12T17:19:14.260Z,35.37
2018-07-12T17:21:45.094Z,35.37
2018-07-12T17:24:15.935Z,35.39
2018-07-12T17:26:46.622Z,35.39
2018-07-12T17:29:17.425Z,35.34
2018-07-12T17:31:48.239Z,35.32
2018-07-12T17:34:19.347Z,35.24
2018-07-12T17:36:50.066Z,35.18
2018-07-12T17:39:21.113Z,35.16
2018-07-12T17:41:51.810Z,35.04
2018-07-12T17:44:22.556Z,34.93
2018-07-12T17:46:53.242Z,34.90
2018-07-12T17:49:24.102Z,35.01
2018-07-12T17:51:54.233Z,34.95
2018-07-12T17:54:25.101Z,34.78
2018-07-12T17:56:55.782Z,34.67
2018-07-12T17:59:26.553Z,34.62
2018-07-12T18:01:57.213Z,34.57
2018-07-12T18:04:27.957Z,34.43
2018-07-12T18:06:58.541Z,34.20
2018-07-12T18:09:28.728Z,34.00
2018-07-12T18:11:59.362Z,33.76
2018-07-12T18:14:30.125Z,33.58
2018-07-12T18:17:00.828Z,33.60
2018-07-12T18:19:31.535Z,33.57
2018-07-12T18:22:02.048Z,33.39
2018-07-12T18:24:34.099Z,33.28
2018-07-12T18:27:04.294Z,33.25
2018-07-12T18:29:35.090Z,33.17
2018-07-12T18:32:05.849Z,33.18
2018-07-12T18:34:36.526Z,33.16
2018-07-12T18:37:07.202Z,33.05
2018-07-12T18:39:38.143Z,32.98
2018-07-12T18:42:08.879Z,32.96
2018-07-12T18:44:39.801Z,32.51
2018-07-12T18:47:10.420Z,32.45
2018-07-12T18:49:41.141Z,32.59
2018-07-12T18:52:11.829Z,32.59
2018-07-12T18:54:42.668Z,32.44
2018-07-12T18:57:13.459Z,32.55
2018-07-12T18:59:44.313Z,32.62
2018-07-12T19:02:14.865Z,32.41
2018-07-12T19:04:45.426Z,32.32
2018-07-12T19:07:16.087Z,32.33
2018-07-12T19:09:46.758Z,32.50
2018-07-12T19:12:17.451Z,32.43
2018-07-12T19:14:48.312Z,32.28
2018-07-12T19:17:19.014Z,32.13
2018-07-12T19:19:49.715Z,32.20
2018-07-12T19:22:20.318Z,32.09
2018-07-12T19:24:51.182Z,31.95
2018-07-12T19:27:21.774Z,31.96
2018-07-12T19:29:52.715Z,31.91
2018-07-12T19:32:23.317Z,31.88
2018-07-12T19:34:54.423Z,31.77
2018-07-12T19:37:25.097Z,31.64
2018-07-12T19:39:56.045Z,31.57
2018-07-12T19:42:26.669Z,31.50
2018-07-12T19:44:57.273Z,31.44
2018-07-12T19:47:27.795Z,31.50
2018-07-12T19:49:58.742Z,31.38
2018-07-12T19:52:29.397Z,31.38
2018-07-12T19:55:00.130Z,31.35
2018-07-12T19:57:30.813Z,31.34
2018-07-12T20:00:01.477Z,31.18
2018-07-12T20:02:32.121Z,31.26
2018-07-12T20:05:02.782Z,31.05
2018-07-12T20:07:33.462Z,29.48
2018-07-12T20:10:04.217Z,29.34
2018-07-12T20:12:34.745Z,29.11
2018-07-12T20:15:05.726Z,29.04
2018-07-12T20:17:36.341Z,29.37
2018-07-12T20:20:08.255Z,29.63
2018-07-12T20:22:38.849Z,29.77
2018-07-12T20:25:09.850Z,29.79
2018-07-12T20:27:40.481Z,29.78
2018-07-12T20:30:11.254Z,29.71
2018-07-12T20:32:42.158Z,29.68
2018-07-12T20:35:12.883Z,29.62
2018-07-12T20:37:43.520Z,29.64
2018-07-12T20:40:14.209Z,29.53
2018-07-12T20:42:44.797Z,29.54
2018-07-12T20:45:15.557Z,29.56
2018-07-12T20:47:46.298Z,29.64
2018-07-12T20:50:17.354Z,29.79
2018-07-12T20:52:47.890Z,29.77
2018-07-12T20:55:18.455Z,29.78
2018-07-12T20:57:49.073Z,29.69
2018-07-12T21:00:19.786Z,29.65
2018-07-12T21:02:50.429Z,29.54
2018-07-12T21:05:21.025Z,29.50
2018-07-12T21:07:51.704Z,29.46
2018-07-12T21:10:22.338Z,29.52
2018-07-12T21:12:52.963Z,29.50
2018-07-12T21:15:23.683Z,29.57
2018-07-12T21:17:54.330Z,29.62
2018-07-12T21:20:25.189Z,29.65
2018-07-12T21:22:55.829Z,28.99
2018-07-12T21:25:27.681Z,29.16
2018-07-12T21:27:58.396Z,28.86
2018-07-12T21:30:29.013Z,28.72
2018-07-12T21:32:59.565Z,28.74
2018-07-12T21:35:30.488Z,28.79
2018-07-12T21:38:01.081Z,28.93
2018-07-12T21:40:32.068Z,28.93
2018-07-12T21:43:02.529Z,28.93
2018-07-12T21:45:33.334Z,28.91
2018-07-12T21:48:03.797Z,28.91
2018-07-12T21:50:34.370Z,28.86
2018-07-12T21:53:05.058Z,28.86
2018-07-12T21:55:35.309Z,28.85
2018-07-12T21:58:05.881Z,28.80
2018-07-12T22:00:36.533Z,28.81
2018-07-12T22:03:07.254Z,28.74
2018-07-12T22:05:37.939Z,28.75
2018-07-12T22:08:16.344Z,28.73
2018-07-12T22:10:48.071Z,28.64
2018-07-12T22:13:19.557Z,28.62
2018-07-12T22:15:50.250Z,28.71
2018-07-12T22:18:21.276Z,28.97
2018-07-12T22:20:52.045Z,28.99
2018-07-12T22:23:22.975Z,28.94
2018-07-12T22:25:53.577Z,28.81
2018-07-12T22:28:24.437Z,28.77
2018-07-12T22:30:54.994Z,28.74
2018-07-12T22:33:25.628Z,28.61
2018-07-12T22:35:56.253Z,28.64
2018-07-12T22:38:26.941Z,28.55
2018-07-12T22:40:57.478Z,28.55
2018-07-12T22:43:28.118Z,28.47
2018-07-12T22:45:58.737Z,28.41
2018-07-12T22:48:29.716Z,28.35
2018-07-12T22:51:00.091Z,28.29
2018-07-12T22:53:30.801Z,28.35
2018-07-12T22:56:02.382Z,28.40
2018-07-12T22:58:33.163Z,28.44
2018-07-12T23:01:03.841Z,28.48
2018-07-12T23:03:34.597Z,28.47
2018-07-12T23:06:05.194Z,28.29
2018-07-12T23:08:35.902Z,28.39
2018-07-12T23:11:06.562Z,28.47
2018-07-12T23:13:37.254Z,28.48
2018-07-12T23:16:07.906Z,28.37
2018-07-12T23:18:38.962Z,28.28
2018-07-12T23:21:09.559Z,28.24
2018-07-12T23:23:40.394Z,28.14
2018-07-12T23:26:12.694Z,28.06
2018-07-12T23:28:43.389Z,27.97
2018-07-12T23:31:14.156Z,27.93
2018-07-12T23:33:44.938Z,27.90
2018-07-12T23:36:15.621Z,27.90
2018-07-12T23:38:46.315Z,27.77
2018-07-12T23:41:16.485Z,27.52
2018-07-12T23:43:47.085Z,27.53
2018-07-12T23:46:17.553Z,27.49
2018-07-12T23:48:48.299Z,26.92
2018-07-12T23:51:19.149Z,26.94
2018-07-12T23:53:50.113Z,27.23
2018-07-12T23:56:20.776Z,26.90
2018-07-12T23:58:51.612Z,26.73
